Time;durP1;ratioP1;P1;durP2;ratioP2;P2;SDS_P1;SDS_P2;PMS_P1;PMS_P2;Temp;Humidity;BMP_temperature;BMP_pressure;BME280_temperature;BME280_humidity;BME280_pressure;Samples;Min_cycle;Max_cycle;Signal;HPM_P1;HPM_P2
2022/04/16 00:00:55;;;;;;;15.77;11.82;;;9.20;99.90;;;;;;5121050;27;20206;-72
2022/04/16 00:03:24;;;;;;;17.10;13.35;;;9.30;99.90;;;;;;5104609;27;20082;-73
2022/04/16 00:05:55;;;;;;;19.42;12.38;;;9.40;99.90;;;;;;5106021;27;20035;-73
2022/04/16 00:08:22;;;;;;;23.02;14.27;;;9.10;99.90;;;;;;5103361;27;20082;-73
2022/04/16 00:10:48;;;;;;;16.35;12.70;;;9.20;99.90;;;;;;5120530;27;20084;-73
2022/04/16 00:13:14;;;;;;;20.30;13.52;;;9.10;99.90;;;;;;5104368;27;20091;-73
2022/04/16 00:15:40;;;;;;;19.15;13.55;;;9.20;99.90;;;;;;5114900;27;20035;-73
2022/04/16 00:18:06;;;;;;;17.10;12.60;;;9.10;99.90;;;;;;5106715;27;20358;-73
2022/04/16 00:20:34;;;;;;;19.05;13.45;;;9.10;99.90;;;;;;5124238;27;20043;-73
2022/04/16 00:23:00;;;;;;;16.73;12.80;;;9.00;99.90;;;;;;5122173;27;20039;-73
2022/04/16 00:25:25;;;;;;;19.77;13.07;;;8.90;99.90;;;;;;5119854;27;20253;-73
2022/04/16 00:27:52;;;;;;;17.25;13.45;;;8.80;99.90;;;;;;5120300;27;20114;-73
2022/04/16 00:30:18;;;;;;;16.90;12.68;;;8.80;99.90;;;;;;5086384;27;20047;-73
2022/04/16 00:32:45;;;;;;;19.35;14.38;;;8.90;99.90;;;;;;5086326;27;20153;-73
2022/04/16 00:35:11;;;;;;;18.58;13.70;;;8.90;99.90;;;;;;5116448;27;20295;-73
2022/04/16 00:37:37;;;;;;;23.05;13.13;;;8.90;99.90;;;;;;5120115;27;20042;-73
2022/04/16 00:40:03;;;;;;;18.98;12.90;;;9.60;99.90;;;;;;5119493;27;20242;-73
2022/04/16 00:42:44;;;;;;;22.50;13.98;;;9.10;99.90;;;;;;5120097;27;20326;-73
2022/04/16 00:45:10;;;;;;;18.60;14.75;;;9.00;99.90;;;;;;5111068;27;20268;-74
2022/04/16 00:47:36;;;;;;;19.42;14.38;;;9.20;99.90;;;;;;5102712;27;20200;-74
2022/04/16 00:50:08;;;;;;;20.55;14.35;;;9.30;99.90;;;;;;5119196;27;20257;-74
2022/04/16 00:52:35;;;;;;;20.63;15.70;;;9.30;99.90;;;;;;5119512;27;20124;-74
2022/04/16 00:55:01;;;;;;;20.90;15.13;;;9.10;99.90;;;;;;5110074;27;20087;-75
2022/04/16 00:57:26;;;;;;;22.00;14.32;;;9.20;99.90;;;;;;5111735;27;20106;-74
2022/04/16 00:59:54;;;;;;;16.88;13.00;;;9.40;99.90;;;;;;5119501;27;20031;-74
2022/04/16 01:02:21;;;;;;;20.60;13.80;;;8.30;99.90;;;;;;5119042;27;20043;-74
2022/04/16 01:04:47;;;;;;;19.88;13.75;;;9.50;99.90;;;;;;5085882;27;20068;-74
2022/04/16 01:07:13;;;;;;;17.92;13.57;;;9.50;99.90;;;;;;5117469;27;20046;-74
2022/04/16 01:09:39;;;;;;;21.15;14.60;;;9.40;99.90;;;;;;5103126;27;20394;-74
2022/04/16 01:12:06;;;;;;;19.52;13.60;;;9.50;99.90;;;;;;5118922;27;20038;-74
2022/04/16 01:14:32;;;;;;;18.60;13.65;;;9.50;99.90;;;;;;5134314;27;20087;-74
2022/04/16 01:16:58;;;;;;;19.65;14.70;;;9.60;99.90;;;;;;5118401;27;20088;-75
2022/04/16 01:19:24;;;;;;;19.00;13.13;;;9.60;99.90;;;;;;5119343;27;20255;-74
2022/04/16 01:21:50;;;;;;;18.95;13.07;;;9.50;99.90;;;;;;5112071;27;20049;-74
2022/04/16 01:24:17;;;;;;;18.48;14.30;;;9.50;99.90;;;;;;5111382;27;20364;-74
2022/04/16 01:26:43;;;;;;;19.85;13.65;;;9.60;99.90;;;;;;5105189;27;20098;-74
2022/04/16 01:29:10;;;;;;;19.58;13.82;;;9.80;99.90;;;;;;5103270;27;20233;-74
2022/04/16 01:31:36;;;;;;;21.73;14.60;;;9.90;99.90;;;;;;5101784;27;20039;-74
2022/04/16 01:34:03;;;;;;;15.98;12.15;;;9.90;99.90;;;;;;5101079;27;20039;-75
2022/04/16 01:36:34;;;;;;;19.52;14.70;;;9.90;99.90;;;;;;5106167;27;20045;-74
2022/04/16 01:39:00;;;;;;;19.88;14.50;;;9.80;99.90;;;;;;5139569;27;20317;-74
2022/04/16 01:41:27;;;;;;;21.73;15.80;;;9.80;99.90;;;;;;5122533;27;20116;-74
2022/04/16 01:43:55;;;;;;;22.42;14.73;;;9.90;99.90;;;;;;5139097;27;20288;-74
2022/04/16 01:46:21;;;;;;;23.25;15.25;;;9.70;99.90;;;;;;5116729;28;20233;-74
2022/04/16 01:48:49;;;;;;;18.48;14.85;;;9.80;99.90;;;;;;5120960;27;20044;-74
2022/04/16 01:51:17;;;;;;;26.05;17.33;;;9.90;99.90;;;;;;5139049;27;20044;-73
2022/04/16 01:53:44;;;;;;;23.25;15.55;;;9.80;99.90;;;;;;5113493;28;20067;-74
2022/04/16 01:56:11;;;;;;;21.85;15.95;;;10.00;99.90;;;;;;5115080;28;20044;-73
2022/04/16 01:58:38;;;;;;;23.70;17.08;;;9.70;99.90;;;;;;5094188;28;20035;-74
2022/04/16 02:01:08;;;;;;;28.90;17.60;;;10.10;99.90;;;;;;5115065;28;20050;-73
2022/04/16 02:03:34;;;;;;;27.00;17.60;;;9.80;99.90;;;;;;5112299;28;20032;-73
2022/04/16 02:06:00;;;;;;;27.40;18.17;;;10.00;99.90;;;;;;5133875;27;20194;-74
2022/04/16 02:08:26;;;;;;;25.65;17.45;;;10.10;99.90;;;;;;5149115;27;20046;-74
2022/04/16 02:10:51;;;;;;;23.92;16.73;;;10.60;99.90;;;;;;5124453;28;20322;-74
2022/04/16 02:13:17;;;;;;;25.15;16.80;;;10.40;99.90;;;;;;5122141;28;20075;-75
2022/04/16 02:15:43;;;;;;;24.15;17.65;;;10.50;99.90;;;;;;5097736;28;20077;-75
2022/04/16 02:18:09;;;;;;;24.25;16.02;;;10.60;99.90;;;;;;5106116;28;20035;-74
2022/04/16 02:20:36;;;;;;;23.60;15.85;;;11.00;99.90;;;;;;5103916;28;20027;-74
2022/04/16 02:23:04;;;;;;;19.58;14.75;;;11.00;99.90;;;;;;5110369;28;20052;-75
2022/04/16 02:25:41;;;;;;;17.83;13.30;;;10.90;99.90;;;;;;5092292;28;20036;-74
2022/04/16 02:28:07;;;;;;;21.65;15.20;;;11.20;99.90;;;;;;5105589;28;20430;-74
2022/04/16 02:30:33;;;;;;;22.75;15.65;;;11.00;99.90;;;;;;5071158;28;20213;-74
2022/04/16 02:32:59;;;;;;;20.55;13.48;;;11.10;99.90;;;;;;5103781;28;20305;-75
2022/04/16 02:35:24;;;;;;;23.10;15.95;;;11.20;99.90;;;;;;5087296;28;20070;-74
2022/04/16 02:37:51;;;;;;;21.40;14.30;;;11.00;99.90;;;;;;5103758;28;20334;-73
2022/04/16 02:40:37;;;;;;;20.02;14.43;;;11.20;99.90;;;;;;5121841;28;20240;-75
2022/04/16 02:43:02;;;;;;;24.52;16.65;;;11.00;99.90;;;;;;5124507;28;20180;-74
2022/04/16 02:48:12;;;;;;;23.65;16.00;;;11.20;99.90;;;;;;5105710;28;20276;-74
2022/04/16 02:50:38;;;;;;;24.88;18.38;;;11.20;99.90;;;;;;5121660;28;20061;-74
2022/04/16 02:53:03;;;;;;;23.95;16.73;;;11.20;99.90;;;;;;5123748;28;20059;-73
2022/04/16 02:55:29;;;;;;;22.92;16.02;;;10.90;99.90;;;;;;5139102;28;20058;-74
2022/04/16 02:57:56;;;;;;;24.63;17.88;;;11.00;99.90;;;;;;5124764;27;20110;-72
2022/04/16 03:00:22;;;;;;;25.33;16.85;;;10.90;99.90;;;;;;5144406;27;20042;-73
2022/04/16 03:02:49;;;;;;;25.20;17.08;;;10.90;99.90;;;;;;5110941;27;20098;-74
2022/04/16 03:05:15;;;;;;;25.73;18.52;;;10.80;99.90;;;;;;5125694;27;20027;-74
2022/04/16 03:07:41;;;;;;;27.25;19.33;;;10.90;99.90;;;;;;5144921;27;20359;-74
2022/04/16 03:10:11;;;;;;;25.67;18.20;;;10.90;99.90;;;;;;5144052;27;20065;-73
2022/04/16 03:12:49;;;;;;;26.20;17.95;;;10.80;99.90;;;;;;5144758;27;20034;-74
2022/04/16 03:18:01;;;;;;;32.92;22.40;;;10.70;99.90;;;;;;5110647;28;20041;-74
2022/04/16 03:20:29;;;;;;;30.67;22.27;;;10.60;99.90;;;;;;5114482;27;20027;-74
2022/04/16 03:22:58;;;;;;;31.00;22.35;;;10.50;99.90;;;;;;5144550;27;20247;-74
2022/04/16 03:25:26;;;;;;;29.75;19.83;;;10.40;99.90;;;;;;5127276;27;20380;-74
2022/04/16 03:27:51;;;;;;;31.60;20.58;;;10.30;99.90;;;;;;5105275;28;20217;-73
2022/04/16 03:30:17;;;;;;;33.13;21.63;;;10.30;99.90;;;;;;5109711;27;20027;-73
2022/04/16 03:32:47;;;;;;;31.13;21.77;;;10.20;99.90;;;;;;5127044;27;20046;-74
2022/04/16 03:35:13;;;;;;;31.25;21.67;;;10.20;99.90;;;;;;5109802;27;20240;-75
2022/04/16 03:37:38;;;;;;;31.50;21.05;;;10.20;99.90;;;;;;5124195;27;20027;-74
2022/04/16 03:40:05;;;;;;;34.65;22.23;;;10.20;99.90;;;;;;5110113;27;20070;-74
2022/04/16 03:42:31;;;;;;;28.70;20.08;;;10.20;99.90;;;;;;5143403;27;20035;-73
2022/04/16 03:44:58;;;;;;;27.42;18.67;;;10.00;99.90;;;;;;5126927;27;20218;-74
2022/04/16 03:47:24;;;;;;;28.30;19.15;;;10.00;99.90;;;;;;5141778;27;20348;-74
2022/04/16 03:49:51;;;;;;;28.50;20.23;;;9.90;99.90;;;;;;5126871;27;20104;-74
2022/04/16 03:52:17;;;;;;;29.05;20.65;;;9.90;99.90;;;;;;5125827;27;20329;-74
2022/04/16 04:00:12;;;;;;;37.60;25.10;;;9.80;99.90;;;;;;5143364;27;20039;-74
2022/04/16 04:02:38;;;;;;;34.47;23.67;;;9.80;99.90;;;;;;5126575;27;20053;-75
2022/04/16 04:05:06;;;;;;;35.65;22.52;;;9.70;99.90;;;;;;5143735;27;20201;-74
2022/04/16 04:07:32;;;;;;;33.75;21.75;;;9.60;99.90;;;;;;5139266;27;20039;-74
2022/04/16 04:09:58;;;;;;;34.10;23.65;;;9.60;99.90;;;;;;5124192;27;20206;-75
2022/04/16 04:12:24;;;;;;;34.53;25.40;;;9.60;99.90;;;;;;5122237;28;20036;-75
2022/04/16 04:14:50;;;;;;;33.00;21.23;;;9.60;99.90;;;;;;5105963;28;20027;-74
2022/04/16 04:17:16;;;;;;;35.08;23.48;;;9.50;99.90;;;;;;5088330;28;20063;-74
2022/04/16 04:19:44;;;;;;;30.92;21.33;;;9.50;99.90;;;;;;5123225;27;20045;-74
2022/04/16 04:22:12;;;;;;;32.50;22.05;;;9.50;99.90;;;;;;5110472;27;20038;-74
2022/04/16 04:24:39;;;;;;;33.42;20.67;;;9.40;99.90;;;;;;5126439;27;20309;-75
2022/04/16 04:27:06;;;;;;;30.48;21.40;;;9.40;99.90;;;;;;5126206;27;20314;-74
2022/04/16 04:29:32;;;;;;;29.73;19.85;;;9.30;99.90;;;;;;5126263;27;20039;-74
2022/04/16 04:31:58;;;;;;;30.35;19.25;;;9.40;99.90;;;;;;5105542;27;20089;-74
2022/04/16 04:34:24;;;;;;;30.33;18.02;;;9.30;99.90;;;;;;5125397;27;20247;-74
2022/04/16 04:36:49;;;;;;;27.13;17.88;;;9.20;99.90;;;;;;5142921;27;20228;-74
2022/04/16 04:39:15;;;;;;;28.80;19.90;;;9.30;99.90;;;;;;5121048;28;20043;-73
2022/04/16 04:41:43;;;;;;;30.00;20.83;;;9.20;99.90;;;;;;5122044;28;20032;-75
2022/04/16 04:44:13;;;;;;;28.85;18.85;;;9.30;99.90;;;;;;5117332;28;20047;-74
2022/04/16 04:46:40;;;;;;;34.00;21.85;;;9.10;99.90;;;;;;5122237;28;20102;-74
2022/04/16 04:49:11;;;;;;;24.02;15.40;;;9.20;99.90;;;;;;5127165;27;20047;-74
2022/04/16 04:51:39;;;;;;;29.17;19.30;;;9.20;99.90;;;;;;5125206;27;20374;-74
2022/04/16 04:54:07;;;;;;;29.98;20.50;;;9.20;99.90;;;;;;5125514;27;20226;-74
2022/04/16 04:56:33;;;;;;;27.55;18.67;;;9.20;99.90;;;;;;5108092;27;20031;-74
2022/04/16 04:58:59;;;;;;;20.75;14.77;;;9.10;99.90;;;;;;5140925;27;20428;-74
2022/04/16 05:01:27;;;;;;;24.48;16.45;;;9.10;99.90;;;;;;5132919;27;20031;-74
2022/04/16 05:03:53;;;;;;;23.30;14.68;;;9.10;99.90;;;;;;5087791;28;20028;-75
2022/04/16 05:06:19;;;;;;;20.45;12.85;;;9.00;99.90;;;;;;5152653;27;20072;-74
2022/04/16 05:08:45;;;;;;;26.42;16.38;;;9.00;99.90;;;;;;5138985;27;20036;-75
2022/04/16 05:11:11;;;;;;;24.27;15.52;;;8.90;99.90;;;;;;5098960;28;20027;-74
2022/04/16 05:13:37;;;;;;;24.75;16.60;;;9.00;99.90;;;;;;5132899;27;20027;-73
2022/04/16 05:16:03;;;;;;;21.73;15.32;;;9.00;99.90;;;;;;5125832;27;20034;-74
2022/04/16 05:18:28;;;;;;;24.90;17.10;;;9.00;99.90;;;;;;5125046;27;20048;-74
2022/04/16 05:20:54;;;;;;;26.95;17.85;;;8.90;99.90;;;;;;5123909;27;20063;-74
2022/04/16 05:23:20;;;;;;;20.42;13.45;;;9.00;99.90;;;;;;5125850;27;20027;-73
2022/04/16 05:25:45;;;;;;;22.27;16.83;;;9.10;99.90;;;;;;5108235;27;20314;-73
2022/04/16 05:28:11;;;;;;;26.52;18.02;;;9.00;99.90;;;;;;5108663;27;20038;-73
2022/04/16 05:30:48;;;;;;;26.23;16.30;;;9.60;99.90;;;;;;5118456;28;20058;-73
2022/04/16 05:36:06;;;;;;;26.27;17.05;;;9.10;99.90;;;;;;5138988;27;20050;-74
2022/04/16 05:38:32;;;;;;;28.33;18.67;;;9.10;99.90;;;;;;5142138;27;20083;-74
2022/04/16 05:40:59;;;;;;;28.77;18.67;;;8.90;99.90;;;;;;5140438;27;20029;-74
2022/04/16 05:43:25;;;;;;;26.67;18.00;;;9.10;99.90;;;;;;5124943;27;20325;-73
2022/04/16 05:45:52;;;;;;;26.60;18.35;;;8.90;99.90;;;;;;5142130;27;20023;-74
2022/04/16 05:48:18;;;;;;;25.52;16.58;;;9.00;99.90;;;;;;5124433;27;20043;-74
2022/04/16 05:50:45;;;;;;;26.15;16.33;;;9.10;99.90;;;;;;5122925;27;20110;-74
2022/04/16 05:53:14;;;;;;;24.13;16.00;;;9.10;99.90;;;;;;5088139;28;20051;-74
2022/04/16 05:55:43;;;;;;;24.83;16.30;;;9.10;99.90;;;;;;5125406;27;20040;-74
2022/04/16 05:58:09;;;;;;;27.92;17.23;;;9.20;99.90;;;;;;5121823;28;20023;-74
2022/04/16 06:00:37;;;;;;;22.73;15.27;;;9.00;99.90;;;;;;5104122;28;20336;-74
2022/04/16 06:03:06;;;;;;;19.95;12.57;;;8.90;99.90;;;;;;5121675;28;20031;-74
2022/04/16 06:05:32;;;;;;;29.02;15.98;;;9.10;99.90;;;;;;5126305;27;20015;-74
2022/04/16 06:08:01;;;;;;;24.65;15.48;;;9.20;99.90;;;;;;5135526;27;20310;-75
2022/04/16 06:10:27;;;;;;;24.25;15.45;;;9.20;99.90;;;;;;5136609;27;20050;-74
2022/04/16 06:12:53;;;;;;;22.23;16.30;;;9.20;99.90;;;;;;5139787;28;20031;-74
2022/04/16 06:15:19;;;;;;;22.88;14.60;;;9.10;99.90;;;;;;5119566;28;20254;-75
2022/04/16 06:17:45;;;;;;;22.45;14.93;;;9.40;99.90;;;;;;5137825;28;20031;-75
2022/04/16 06:20:13;;;;;;;21.77;13.75;;;9.20;99.90;;;;;;5104167;28;20032;-74
2022/04/16 06:22:39;;;;;;;20.13;13.80;;;9.50;99.90;;;;;;5125233;28;20027;-74
2022/04/16 06:25:08;;;;;;;26.63;15.73;;;9.40;99.90;;;;;;5137578;28;20108;-75
2022/04/16 06:27:38;;;;;;;22.60;15.05;;;9.60;99.90;;;;;;5134790;28;20070;-74
2022/04/16 06:30:07;;;;;;;20.65;14.15;;;9.30;99.90;;;;;;5121999;28;20027;-73
2022/04/16 06:32:34;;;;;;;18.95;12.07;;;9.40;99.90;;;;;;5140996;27;20247;-73
2022/04/16 06:35:01;;;;;;;18.30;13.40;;;9.20;99.90;;;;;;5127628;27;20038;-72
2022/04/16 06:37:27;;;;;;;21.27;14.02;;;9.40;99.90;;;;;;5127370;27;20099;-73
2022/04/16 06:39:53;;;;;;;24.40;14.13;;;9.40;99.90;;;;;;5123704;28;20031;-73
2022/04/16 06:42:18;;;;;;;23.35;15.90;;;9.40;99.90;;;;;;5121426;27;20268;-74
2022/04/16 06:44:44;;;;;;;21.83;13.40;;;9.40;99.90;;;;;;5128348;27;20072;-74
2022/04/16 06:47:10;;;;;;;19.25;11.73;;;9.30;99.90;;;;;;5087209;27;20156;-73
2022/04/16 06:49:35;;;;;;;20.52;13.48;;;9.30;99.90;;;;;;5144301;27;20035;-74
2022/04/16 06:52:01;;;;;;;22.33;14.15;;;9.40;99.90;;;;;;5127828;27;20023;-72
2022/04/16 06:54:27;;;;;;;21.05;13.32;;;9.50;99.90;;;;;;5110024;27;20055;-73
2022/04/16 06:56:52;;;;;;;20.75;13.23;;;9.50;99.90;;;;;;5137426;27;20240;-72
2022/04/16 06:59:18;;;;;;;19.55;12.77;;;9.60;99.90;;;;;;5127037;27;20027;-73
2022/04/16 07:01:43;;;;;;;21.20;13.70;;;9.40;99.90;;;;;;5110347;27;20098;-72
2022/04/16 07:04:11;;;;;;;17.38;12.02;;;9.40;99.90;;;;;;5127464;27;20039;-72
2022/04/16 07:06:39;;;;;;;20.60;12.10;;;9.60;99.90;;;;;;5125881;27;20038;-73
2022/04/16 07:09:05;;;;;;;17.98;12.25;;;9.60;99.90;;;;;;5123769;27;20032;-74
2022/04/16 07:11:30;;;;;;;17.65;11.63;;;9.60;99.90;;;;;;5106698;28;20046;-73
2022/04/16 07:13:56;;;;;;;18.42;11.63;;;9.60;99.90;;;;;;5107079;28;20035;-72
2022/04/16 07:16:22;;;;;;;18.33;11.73;;;9.70;99.90;;;;;;5123339;28;20134;-72
2022/04/16 07:18:47;;;;;;;18.42;11.73;;;9.60;99.90;;;;;;5113411;28;20361;-72
2022/04/16 07:21:13;;;;;;;16.65;11.35;;;9.70;99.90;;;;;;5106452;28;20068;-73
2022/04/16 07:23:38;;;;;;;16.63;11.05;;;9.90;99.90;;;;;;5106345;28;20042;-73
2022/04/16 07:26:04;;;;;;;15.77;9.73;;;9.80;99.90;;;;;;5106547;28;20032;-73
2022/04/16 07:28:30;;;;;;;14.32;9.20;;;9.70;99.90;;;;;;5123351;27;20049;-71
2022/04/16 07:30:56;;;;;;;13.77;9.48;;;9.60;99.90;;;;;;5106381;28;20318;-72
2022/04/16 07:33:21;;;;;;;13.48;9.38;;;9.50;99.90;;;;;;5106693;28;20036;-71
2022/04/16 07:35:47;;;;;;;12.32;8.25;;;9.70;99.90;;;;;;5106368;28;20027;-72
2022/04/16 07:38:13;;;;;;;11.70;7.85;;;9.50;99.90;;;;;;5089062;28;20088;-72
2022/04/16 07:40:39;;;;;;;14.13;9.63;;;9.60;99.90;;;;;;5142732;27;20314;-73
2022/04/16 07:43:05;;;;;;;13.45;8.30;;;9.70;99.90;;;;;;5126285;27;20102;-73
2022/04/16 07:45:32;;;;;;;13.95;8.60;;;9.70;99.90;;;;;;5124916;27;20359;-78
2022/04/16 07:47:58;;;;;;;13.23;8.00;;;9.80;99.90;;;;;;5126428;27;20027;-76
2022/04/16 07:50:23;;;;;;;12.15;8.57;;;9.70;99.90;;;;;;5124923;27;20027;-73
2022/04/16 07:52:49;;;;;;;12.35;7.45;;;9.80;99.90;;;;;;5109412;27;20047;-71
2022/04/16 07:55:15;;;;;;;11.70;7.50;;;9.70;99.90;;;;;;5143442;27;20307;-72
2022/04/16 07:57:41;;;;;;;13.00;8.18;;;9.80;99.90;;;;;;5125693;27;20209;-71
2022/04/16 08:00:09;;;;;;;11.88;8.10;;;10.00;99.90;;;;;;5124839;27;20050;-72
2022/04/16 08:02:35;;;;;;;12.20;8.20;;;10.00;99.90;;;;;;5142690;27;20031;-72
2022/04/16 08:05:01;;;;;;;11.50;6.20;;;10.10;99.90;;;;;;5126390;27;20038;-72
2022/04/16 08:07:26;;;;;;;11.07;6.90;;;10.20;99.90;;;;;;5142737;27;20190;-71
2022/04/16 08:09:52;;;;;;;10.30;7.20;;;10.30;99.90;;;;;;5123972;27;20035;-72
2022/04/16 08:12:18;;;;;;;9.15;6.45;;;10.40;99.90;;;;;;5142898;27;20358;-71
2022/04/16 08:14:43;;;;;;;9.05;5.57;;;10.00;99.90;;;;;;5108707;27;20046;-71
2022/04/16 08:17:09;;;;;;;8.02;5.32;;;10.10;99.90;;;;;;5125897;27;20377;-72
2022/04/16 08:19:35;;;;;;;8.10;5.13;;;10.20;99.90;;;;;;5142796;27;20314;-71
2022/04/16 08:22:03;;;;;;;8.40;5.40;;;10.10;99.90;;;;;;5125812;27;20042;-72
2022/04/16 08:26:57;;;;;;;5.95;4.25;;;9.80;99.90;;;;;;5141990;27;20031;-71
2022/04/16 08:29:23;;;;;;;4.95;3.72;;;10.00;99.90;;;;;;5123254;27;20259;-72
2022/04/16 08:31:49;;;;;;;6.22;3.42;;;10.30;99.90;;;;;;5104538;28;20373;-72
2022/04/16 08:34:17;;;;;;;5.38;3.72;;;10.30;99.90;;;;;;5105110;28;20112;-71
2022/04/16 08:36:43;;;;;;;5.95;4.35;;;10.40;99.90;;;;;;5123246;27;20061;-72
2022/04/16 08:39:09;;;;;;;4.82;3.42;;;10.60;99.90;;;;;;5088512;28;20038;-72
2022/04/16 08:41:38;;;;;;;7.25;3.70;;;10.60;99.90;;;;;;5111514;28;20102;-72
2022/04/16 08:44:05;;;;;;;6.93;3.70;;;10.60;99.90;;;;;;5105106;28;20137;-71
2022/04/16 08:46:32;;;;;;;4.57;3.17;;;10.80;99.90;;;;;;5105460;28;20027;-72
2022/04/16 08:49:01;;;;;;;5.75;3.20;;;10.60;99.90;;;;;;5121695;28;20050;-72
2022/04/16 08:51:27;;;;;;;4.85;3.08;;;10.90;99.90;;;;;;5110448;27;20136;-71
2022/04/16 08:53:53;;;;;;;4.13;2.78;;;10.90;99.90;;;;;;5142271;27;20055;-71
2022/04/16 08:56:19;;;;;;;4.28;2.50;;;11.10;99.90;;;;;;5131585;27;20078;-71
2022/04/16 08:58:45;;;;;;;2.00;1.60;;;11.00;99.90;;;;;;5103302;27;20031;-72
2022/04/16 09:01:11;;;;;;;2.10;1.60;;;11.10;99.90;;;;;;5111860;27;20226;-72
2022/04/16 09:03:39;;;;;;;3.30;2.00;;;11.30;96.20;;;;;;5135564;27;20042;-73
2022/04/16 09:06:06;;;;;;;2.15;1.35;;;11.60;99.90;;;;;;5111962;27;20142;-73
2022/04/16 09:08:32;;;;;;;2.53;1.52;;;11.60;86.90;;;;;;5114502;28;20050;-73
2022/04/16 09:11:11;;;;;;;3.35;1.50;;;11.60;92.80;;;;;;5097823;28;20063;-73
2022/04/16 09:13:56;;;;;;;1.55;0.98;;;11.60;88.70;;;;;;5133184;27;20329;-73
2022/04/16 09:16:22;;;;;;;2.58;1.38;;;11.50;84.60;;;;;;5116603;27;20098;-73
2022/04/16 09:18:52;;;;;;;1.85;1.00;;;11.70;86.50;;;;;;5135057;27;20035;-73
2022/04/16 09:21:26;;;;;;;1.98;1.05;;;11.60;82.50;;;;;;5117288;27;20046;-73
2022/04/16 09:23:58;;;;;;;2.30;1.15;;;12.10;82.20;;;;;;5117417;27;20040;-73
2022/04/16 09:26:31;;;;;;;1.40;1.10;;;12.00;73.30;;;;;;5115487;27;20474;-72
2022/04/16 09:29:14;;;;;;;3.80;1.00;;;11.90;67.60;;;;;;5116334;27;20254;-73
2022/04/16 09:31:45;;;;;;;1.60;1.00;;;12.20;71.90;;;;;;5097260;28;20059;-73
2022/04/16 09:34:18;;;;;;;1.92;1.25;;;12.40;72.50;;;;;;5131542;27;20152;-72
2022/04/16 09:36:44;;;;;;;1.33;0.93;;;12.50;74.80;;;;;;5115063;27;20043;-72
2022/04/16 09:39:13;;;;;;;1.25;0.98;;;12.60;70.40;;;;;;5096958;28;20039;-73
2022/04/16 09:41:41;;;;;;;1.50;1.00;;;12.50;65.60;;;;;;5131042;27;20096;-73
2022/04/16 09:44:20;;;;;;;1.63;1.17;;;12.70;66.70;;;;;;5128197;27;20054;-72
2022/04/16 09:46:46;;;;;;;1.55;1.00;;;12.90;69.40;;;;;;5134385;27;20043;-72
2022/04/16 09:50:00;;;;;;;1.58;1.08;;;12.80;72.00;;;;;;5114289;27;20074;-72
2022/04/16 09:52:26;;;;;;;1.80;1.17;;;13.00;69.30;;;;;;5128085;27;20306;-72
2022/04/16 09:54:54;;;;;;;1.40;1.08;;;13.20;76.80;;;;;;5120042;27;20050;-72
2022/04/16 09:57:29;;;;;;;2.65;1.10;;;13.20;72.30;;;;;;5107048;27;20027;-73
2022/04/16 09:59:57;;;;;;;2.10;1.20;;;13.10;70.70;;;;;;5129832;27;20038;-72
2022/04/16 10:02:23;;;;;;;1.42;1.10;;;13.30;71.60;;;;;;5110171;27;20077;-71
2022/04/16 10:04:49;;;;;;;1.20;0.90;;;13.60;72.90;;;;;;5099535;27;20282;-71
2022/04/16 10:07:15;;;;;;;1.17;0.90;;;13.30;60.40;;;;;;5107048;27;20102;-71
2022/04/16 10:09:42;;;;;;;2.03;1.00;;;13.40;59.30;;;;;;5115343;28;20110;-71
2022/04/16 10:14:55;;;;;;;1.15;0.95;;;13.30;54.40;;;;;;5116111;28;20038;-72
2022/04/16 10:17:42;;;;;;;2.75;1.30;;;13.50;56.70;;;;;;5101412;27;20035;-73
2022/04/16 10:20:15;;;;;;;2.83;1.38;;;13.80;63.10;;;;;;5117320;27;20105;-71
2022/04/16 10:22:55;;;;;;;0.88;0.70;;;13.80;55.60;;;;;;5116318;28;20227;-71
2022/04/16 10:25:35;;;;;;;3.08;0.80;;;13.60;51.30;;;;;;5099760;28;20047;-71
2022/04/16 10:28:06;;;;;;;1.25;1.00;;;13.90;53.20;;;;;;5102716;28;20138;-71
2022/04/16 10:30:52;;;;;;;1.90;0.90;;;13.70;53.80;;;;;;5099057;27;20050;-72
2022/04/16 10:33:19;;;;;;;1.40;0.98;;;13.40;47.70;;;;;;5082757;28;20215;-72
2022/04/16 10:36:09;;;;;;;0.75;0.70;;;13.70;52.60;;;;;;5116560;28;20027;-73
2022/04/16 10:38:42;;;;;;;3.17;0.93;;;14.00;50.50;;;;;;5111581;28;20368;-73
2022/04/16 10:41:12;;;;;;;0.82;0.73;;;14.10;52.50;;;;;;5115677;27;20036;-73
2022/04/16 10:43:38;;;;;;;1.10;0.95;;;13.80;47.20;;;;;;5092056;28;20238;-73
2022/04/16 10:46:05;;;;;;;1.60;0.90;;;13.70;46.20;;;;;;5111035;27;20090;-72
2022/04/16 10:48:38;;;;;;;1.42;0.85;;;14.10;48.60;;;;;;5119250;28;20120;-72
2022/04/16 10:51:05;;;;;;;2.83;0.82;;;14.00;49.60;;;;;;5116514;28;20229;-72
2022/04/16 10:53:33;;;;;;;1.00;0.80;;;13.70;45.10;;;;;;5090931;28;20052;-73
2022/04/16 10:56:12;;;;;;;1.30;0.90;;;13.60;45.40;;;;;;5102945;28;20071;-72
2022/04/16 10:58:43;;;;;;;1.75;1.00;;;14.00;50.00;;;;;;5122869;28;20271;-72
2022/04/16 11:01:10;;;;;;;2.95;1.20;;;14.00;48.40;;;;;;5099148;28;20066;-73
2022/04/16 11:03:47;;;;;;;1.15;0.75;;;14.00;46.80;;;;;;5100903;27;20039;-73
2022/04/16 11:06:14;;;;;;;1.10;0.70;;;14.30;44.70;;;;;;5122953;27;20340;-74
2022/04/16 11:08:41;;;;;;;1.45;0.98;;;14.00;44.10;;;;;;5128186;27;20035;-74
2022/04/16 11:11:09;;;;;;;1.20;0.88;;;14.10;49.30;;;;;;5118106;27;20266;-74
2022/04/16 11:13:37;;;;;;;1.60;1.00;;;14.00;48.60;;;;;;5099013;28;20106;-74
2022/04/16 11:16:03;;;;;;;1.73;1.10;;;14.10;50.50;;;;;;5115203;27;20027;-71
2022/04/16 11:18:48;;;;;;;3.08;1.13;;;14.30;51.30;;;;;;5122850;27;20049;-71
2022/04/16 11:21:18;;;;;;;1.67;0.95;;;14.50;51.50;;;;;;5137808;27;20038;-71
2022/04/16 11:23:48;;;;;;;1.67;1.10;;;14.70;48.70;;;;;;5123620;27;20073;-71
2022/04/16 11:34:54;;;;;;;2.22;1.02;;;14.10;47.10;;;;;;5125900;27;20039;-71
2022/04/16 11:37:20;;;;;;;2.08;1.00;;;14.10;46.30;;;;;;5116008;27;20039;-71
2022/04/16 11:39:48;;;;;;;1.40;0.80;;;14.80;49.90;;;;;;5114860;27;20050;-71
2022/04/16 11:42:14;;;;;;;1.88;1.13;;;14.60;47.30;;;;;;5139134;27;20042;-71
2022/04/16 11:44:42;;;;;;;1.73;0.90;;;13.90;43.00;;;;;;5140211;27;20202;-72
2022/04/16 11:47:17;;;;;;;1.13;1.00;;;14.50;45.50;;;;;;5119725;27;20080;-71
2022/04/16 11:49:51;;;;;;;1.38;1.17;;;14.90;49.90;;;;;;5137779;27;20050;-71
2022/04/16 11:52:23;;;;;;;2.33;1.08;;;14.70;48.20;;;;;;5121674;27;20125;-71
2022/04/16 11:54:59;;;;;;;1.60;1.45;;;14.50;48.80;;;;;;5123615;27;20051;-71
2022/04/16 11:57:25;;;;;;;1.48;1.00;;;14.50;46.80;;;;;;5103497;27;20151;-71
2022/04/16 11:59:58;;;;;;;1.10;0.90;;;14.50;44.40;;;;;;5137862;27;20049;-71
2022/04/16 12:02:36;;;;;;;3.22;1.20;;;14.70;42.10;;;;;;5141604;27;20320;-71
2022/04/16 12:05:08;;;;;;;1.08;0.90;;;14.70;44.10;;;;;;5117911;27;20043;-72
2022/04/16 12:07:34;;;;;;;1.67;1.13;;;14.80;46.00;;;;;;5101827;27;20126;-73
2022/04/16 12:10:02;;;;;;;2.00;1.13;;;14.80;48.60;;;;;;5110966;27;20079;-75
2022/04/16 12:12:28;;;;;;;2.10;1.20;;;14.80;48.40;;;;;;5136203;27;20035;-72
2022/04/16 12:14:55;;;;;;;1.58;1.00;;;14.60;48.10;;;;;;5101635;27;20039;-72
2022/04/16 12:17:26;;;;;;;1.45;1.10;;;15.10;49.80;;;;;;5135834;27;20035;-72
2022/04/16 12:20:04;;;;;;;1.63;1.00;;;14.80;45.10;;;;;;5121513;27;20305;-73
2022/04/16 12:22:30;;;;;;;1.48;0.90;;;15.10;46.20;;;;;;5102396;27;20374;-73
2022/04/16 12:25:09;;;;;;;1.83;1.17;;;14.90;47.00;;;;;;5118703;27;20344;-73
2022/04/16 12:27:35;;;;;;;1.70;1.00;;;14.70;45.70;;;;;;5102011;27;20394;-72
2022/04/16 12:30:03;;;;;;;2.13;1.10;;;14.60;42.80;;;;;;5112121;27;20382;-72
2022/04/16 12:32:28;;;;;;;1.52;1.00;;;14.60;42.60;;;;;;5117996;27;20039;-72
2022/04/16 12:34:54;;;;;;;2.15;1.30;;;14.90;44.00;;;;;;5117965;27;20370;-72
2022/04/16 12:37:21;;;;;;;1.45;0.98;;;15.00;44.10;;;;;;5100991;27;20423;-72
2022/04/16 12:39:49;;;;;;;2.45;1.20;;;15.00;42.20;;;;;;5105753;27;20110;-73
2022/04/16 12:42:14;;;;;;;1.27;1.00;;;14.90;42.40;;;;;;5118159;27;20365;-72
2022/04/16 12:44:40;;;;;;;1.10;0.88;;;15.20;43.80;;;;;;5119801;27;20071;-73
2022/04/16 12:47:07;;;;;;;2.17;1.20;;;15.10;40.60;;;;;;5121413;27;20122;-73
2022/04/16 12:49:33;;;;;;;1.20;1.08;;;15.10;41.10;;;;;;5118326;27;20039;-73
2022/04/16 12:51:59;;;;;;;2.10;0.98;;;14.90;39.60;;;;;;5109253;27;20308;-73
2022/04/16 12:54:24;;;;;;;1.55;1.02;;;15.20;40.80;;;;;;5100872;27;20131;-73
2022/04/16 12:56:50;;;;;;;1.15;0.90;;;15.30;40.50;;;;;;5084198;27;20054;-73
2022/04/16 12:59:16;;;;;;;4.80;0.98;;;15.20;37.80;;;;;;5084409;27;20045;-73
2022/04/16 13:01:42;;;;;;;1.90;1.00;;;15.20;36.90;;;;;;5116624;27;20034;-73
2022/04/16 13:06:59;;;;;;;0.93;0.70;;;15.30;36.20;;;;;;5115040;27;20230;-73
2022/04/16 13:09:25;;;;;;;0.80;0.80;;;14.80;36.20;;;;;;5117422;27;20110;-73
2022/04/16 13:11:53;;;;;;;3.55;1.10;;;15.40;38.10;;;;;;5125114;27;20098;-73
2022/04/16 13:14:19;;;;;;;1.42;1.10;;;15.40;35.30;;;;;;5138122;27;20045;-73